sensor_id;sensor_type;location;lat;lon;timestamp;pressure;altitude;pressure_sealevel;temperature;humidity
36788;BME280;22738;45.560;9.434;2023-07-08T00:04:37;100388.50;;;23.32;100.00
36788;BME280;22738;45.560;9.434;2023-07-08T00:11:19;100384.56;;;23.28;100.00
36788;BME280;22738;45.560;9.434;2023-07-08T00:18:00;100381.56;;;23.15;100.00
36788;BME280;22738;45.560;9.434;2023-07-08T00:24:42;100382.22;;;23.09;100.00
36788;BME280;22738;45.560;9.434;2023-07-08T00:31:24;100387.00;;;23.13;100.00
36788;BME280;22738;45.560;9.434;2023-07-08T00:38:20;100392.81;;;23.17;100.00
36788;BME280;22738;45.560;9.434;2023-07-08T00:45:11;100390.50;;;23.22;100.00
36788;BME280;22738;45.560;9.434;2023-07-08T00:52:25;100397.44;;;23.23;100.00
36788;BME280;22738;45.560;9.434;2023-07-08T00:59:18;100393.63;;;23.17;100.00
36788;BME280;22738;45.560;9.434;2023-07-08T01:06:00;100400.56;;;22.94;100.00
36788;BME280;22738;45.560;9.434;2023-07-08T01:12:45;100390.13;;;22.93;100.00
36788;BME280;22738;45.560;9.434;2023-07-08T01:19:29;100396.09;;;22.87;100.00
36788;BME280;22738;45.560;9.434;2023-07-08T01:26:14;100407.81;;;22.92;100.00
36788;BME280;22738;45.560;9.434;2023-07-08T01:33:05;100400.72;;;22.85;100.00
36788;BME280;22738;45.560;9.434;2023-07-08T01:39:48;100398.06;;;22.85;100.00
36788;BME280;22738;45.560;9.434;2023-07-08T01:46:29;100369.13;;;22.83;100.00
36788;BME280;22738;45.560;9.434;2023-07-08T01:53:15;100355.59;;;22.78;100.00
36788;BME280;22738;45.560;9.434;2023-07-08T01:59:58;100347.31;;;22.81;100.00
36788;BME280;22738;45.560;9.434;2023-07-08T02:06:39;100363.22;;;22.89;100.00
36788;BME280;22738;45.560;9.434;2023-07-08T02:13:25;100343.88;;;22.81;100.00
36788;BME280;22738;45.560;9.434;2023-07-08T02:20:06;100341.53;;;22.86;100.00
36788;BME280;22738;45.560;9.434;2023-07-08T02:26:49;100319.91;;;22.82;100.00
36788;BME280;22738;45.560;9.434;2023-07-08T02:33:30;100331.97;;;22.93;100.00
36788;BME280;22738;45.560;9.434;2023-07-08T02:40:13;100350.81;;;22.98;100.00
36788;BME280;22738;45.560;9.434;2023-07-08T02:46:55;100365.69;;;23.07;100.00
36788;BME280;22738;45.560;9.434;2023-07-08T02:53:36;100346.00;;;23.01;100.00
36788;BME280;22738;45.560;9.434;2023-07-08T03:00:18;100344.34;;;22.84;100.00
36788;BME280;22738;45.560;9.434;2023-07-08T03:06:59;100353.78;;;22.87;100.00
36788;BME280;22738;45.560;9.434;2023-07-08T03:13:41;100355.75;;;22.77;100.00
36788;BME280;22738;45.560;9.434;2023-07-08T03:20:22;100378.53;;;22.69;100.00
36788;BME280;22738;45.560;9.434;2023-07-08T03:27:04;100400.34;;;22.72;100.00
36788;BME280;22738;45.560;9.434;2023-07-08T03:33:48;100391.25;;;22.74;100.00
36788;BME280;22738;45.560;9.434;2023-07-08T03:40:30;100407.28;;;22.64;100.00
36788;BME280;22738;45.560;9.434;2023-07-08T03:47:11;100388.22;;;22.53;100.00
36788;BME280;22738;45.560;9.434;2023-07-08T03:53:52;100392.28;;;22.39;100.00
36788;BME280;22738;45.560;9.434;2023-07-08T04:00:36;100373.44;;;22.34;100.00
36788;BME280;22738;45.560;9.434;2023-07-08T04:07:17;100374.47;;;22.41;100.00
36788;BME280;22738;45.560;9.434;2023-07-08T04:13:58;100378.13;;;22.56;100.00
36788;BME280;22738;45.560;9.434;2023-07-08T04:20:40;100361.00;;;22.60;100.00
36788;BME280;22738;45.560;9.434;2023-07-08T04:27:21;100342.34;;;22.62;100.00
36788;BME280;22738;45.560;9.434;2023-07-08T04:34:02;100340.72;;;22.69;100.00
36788;BME280;22738;45.560;9.434;2023-07-08T04:40:43;100332.59;;;22.70;100.00
36788;BME280;22738;45.560;9.434;2023-07-08T04:47:24;100336.59;;;22.83;100.00
36788;BME280;22738;45.560;9.434;2023-07-08T04:54:10;100329.97;;;22.87;100.00
36788;BME280;22738;45.560;9.434;2023-07-08T05:00:51;100324.69;;;22.95;100.00
36788;BME280;22738;45.560;9.434;2023-07-08T05:07:32;100313.78;;;23.14;100.00
36788;BME280;22738;45.560;9.434;2023-07-08T05:14:14;100321.06;;;23.12;100.00
36788;BME280;22738;45.560;9.434;2023-07-08T05:20:55;100321.53;;;23.15;100.00
36788;BME280;22738;45.560;9.434;2023-07-08T05:27:37;100311.78;;;23.48;100.00
36788;BME280;22738;45.560;9.434;2023-07-08T05:34:18;100311.59;;;23.58;100.00
36788;BME280;22738;45.560;9.434;2023-07-08T05:40:59;100323.22;;;25.10;100.00
36788;BME280;22738;45.560;9.434;2023-07-08T05:47:40;100347.94;;;29.57;100.00
36788;BME280;22738;45.560;9.434;2023-07-08T05:54:21;100369.44;;;32.91;100.00
36788;BME280;22738;45.560;9.434;2023-07-08T06:01:03;100373.00;;;33.03;97.89
36788;BME280;22738;45.560;9.434;2023-07-08T06:07:45;100364.84;;;34.14;88.23
36788;BME280;22738;45.560;9.434;2023-07-08T06:14:27;100363.31;;;35.36;71.39
36788;BME280;22738;45.560;9.434;2023-07-08T06:21:08;100372.28;;;35.74;62.54
36788;BME280;22738;45.560;9.434;2023-07-08T06:27:49;100371.47;;;37.14;60.23
36788;BME280;22738;45.560;9.434;2023-07-08T06:34:31;100380.75;;;34.83;74.03
36788;BME280;22738;45.560;9.434;2023-07-08T06:41:13;100373.94;;;35.59;77.83
36788;BME280;22738;45.560;9.434;2023-07-08T06:47:54;100390.66;;;37.44;52.04
36788;BME280;22738;45.560;9.434;2023-07-08T06:54:35;100407.59;;;38.75;46.51
36788;BME280;22738;45.560;9.434;2023-07-08T07:01:16;100395.31;;;38.63;48.08
36788;BME280;22738;45.560;9.434;2023-07-08T07:08:00;100383.34;;;37.13;55.67
36788;BME280;22738;45.560;9.434;2023-07-08T07:14:46;100394.13;;;36.55;68.58
36788;BME280;22738;45.560;9.434;2023-07-08T07:21:28;100376.63;;;35.42;70.80
36788;BME280;22738;45.560;9.434;2023-07-08T07:28:09;100389.75;;;37.02;60.01
36788;BME280;22738;45.560;9.434;2023-07-08T07:34:50;100406.34;;;37.42;56.74
36788;BME280;22738;45.560;9.434;2023-07-08T07:41:31;100402.34;;;35.83;65.20
36788;BME280;22738;45.560;9.434;2023-07-08T07:48:14;100418.31;;;36.23;63.08
36788;BME280;22738;45.560;9.434;2023-07-08T07:54:55;100410.31;;;35.73;69.34
36788;BME280;22738;45.560;9.434;2023-07-08T08:01:36;100411.06;;;35.19;69.34
36788;BME280;22738;45.560;9.434;2023-07-08T08:08:19;100401.63;;;34.76;84.96
36788;BME280;22738;45.560;9.434;2023-07-08T08:15:00;100390.59;;;34.50;83.86
36788;BME280;22738;45.560;9.434;2023-07-08T08:21:41;100400.56;;;35.05;93.73
36788;BME280;22738;45.560;9.434;2023-07-08T08:28:22;100404.50;;;35.14;81.04
36788;BME280;22738;45.560;9.434;2023-07-08T08:35:04;100404.38;;;34.25;77.57
36788;BME280;22738;45.560;9.434;2023-07-08T08:41:45;100402.53;;;33.91;77.22
36788;BME280;22738;45.560;9.434;2023-07-08T08:48:27;100403.44;;;33.96;74.45
36788;BME280;22738;45.560;9.434;2023-07-08T08:55:12;100407.34;;;33.65;80.53
36788;BME280;22738;45.560;9.434;2023-07-08T09:01:55;100406.28;;;33.66;70.25
36788;BME280;22738;45.560;9.434;2023-07-08T09:08:37;100409.75;;;33.32;69.35
36788;BME280;22738;45.560;9.434;2023-07-08T09:15:19;100417.53;;;34.10;67.14
36788;BME280;22738;45.560;9.434;2023-07-08T09:22:17;100426.78;;;34.02;63.39
36788;BME280;22738;45.560;9.434;2023-07-08T09:29:04;100423.47;;;33.77;71.92
36788;BME280;22738;45.560;9.434;2023-07-08T09:35:48;100414.34;;;33.90;64.06
36788;BME280;22738;45.560;9.434;2023-07-08T09:42:33;100429.44;;;34.14;55.64
36788;BME280;22738;45.560;9.434;2023-07-08T09:56:00;100415.66;;;33.64;62.20
36788;BME280;22738;45.560;9.434;2023-07-08T10:02:52;100401.84;;;33.60;49.08
36788;BME280;22738;45.560;9.434;2023-07-08T10:09:34;100412.91;;;33.99;46.78
36788;BME280;22738;45.560;9.434;2023-07-08T10:16:30;100404.66;;;33.65;58.36
36788;BME280;22738;45.560;9.434;2023-07-08T10:44:26;100377.94;;;33.29;43.67
36788;BME280;22738;45.560;9.434;2023-07-08T11:12:30;100360.78;;;32.89;47.40
36788;BME280;22738;45.560;9.434;2023-07-08T11:19:23;100359.47;;;33.21;52.00
36788;BME280;22738;45.560;9.434;2023-07-08T11:33:45;100348.78;;;32.62;51.84
36788;BME280;22738;45.560;9.434;2023-07-08T11:40:27;100350.69;;;32.73;48.56
36788;BME280;22738;45.560;9.434;2023-07-08T11:47:40;100334.25;;;32.81;48.59
36788;BME280;22738;45.560;9.434;2023-07-08T11:54:30;100310.53;;;32.78;48.75
36788;BME280;22738;45.560;9.434;2023-07-08T12:07:56;100322.16;;;32.12;77.24
36788;BME280;22738;45.560;9.434;2023-07-08T12:14:41;100306.06;;;31.76;60.27
36788;BME280;22738;45.560;9.434;2023-07-08T12:21:24;100308.31;;;31.97;57.59
36788;BME280;22738;45.560;9.434;2023-07-08T12:28:09;100296.69;;;32.03;71.99
36788;BME280;22738;45.560;9.434;2023-07-08T12:34:50;100289.69;;;31.84;64.15
36788;BME280;22738;45.560;9.434;2023-07-08T12:41:34;100295.63;;;32.22;62.00
36788;BME280;22738;45.560;9.434;2023-07-08T12:48:16;100284.31;;;32.02;72.62
36788;BME280;22738;45.560;9.434;2023-07-08T12:54:57;100287.75;;;32.09;72.64
36788;BME280;22738;45.560;9.434;2023-07-08T13:01:39;100281.91;;;32.42;61.14
36788;BME280;22738;45.560;9.434;2023-07-08T13:08:22;100285.75;;;32.34;58.78
36788;BME280;22738;45.560;9.434;2023-07-08T13:15:12;100279.69;;;32.69;58.54
36788;BME280;22738;45.560;9.434;2023-07-08T13:21:57;100271.94;;;32.61;65.67
36788;BME280;22738;45.560;9.434;2023-07-08T13:28:40;100267.13;;;32.21;62.28
36788;BME280;22738;45.560;9.434;2023-07-08T13:35:27;100259.50;;;32.07;65.06
36788;BME280;22738;45.560;9.434;2023-07-08T13:42:09;100256.25;;;31.68;73.34
36788;BME280;22738;45.560;9.434;2023-07-08T13:48:51;100245.84;;;32.08;75.44
36788;BME280;22738;45.560;9.434;2023-07-08T13:55:33;100242.72;;;31.93;67.67
36788;BME280;22738;45.560;9.434;2023-07-08T14:02:21;100236.91;;;31.96;77.41
36788;BME280;22738;45.560;9.434;2023-07-08T14:09:14;100238.81;;;32.25;77.23
36788;BME280;22738;45.560;9.434;2023-07-08T14:15:56;100236.84;;;32.32;80.38
36788;BME280;22738;45.560;9.434;2023-07-08T14:22:37;100238.25;;;32.47;82.06
36788;BME280;22738;45.560;9.434;2023-07-08T14:29:18;100225.44;;;32.49;68.44
36788;BME280;22738;45.560;9.434;2023-07-08T14:35:59;100229.06;;;32.13;75.42
36788;BME280;22738;45.560;9.434;2023-07-08T14:42:40;100211.88;;;32.02;75.65
36788;BME280;22738;45.560;9.434;2023-07-08T14:49:22;100209.84;;;32.16;74.84
36788;BME280;22738;45.560;9.434;2023-07-08T14:56:12;100208.53;;;32.48;78.06
36788;BME280;22738;45.560;9.434;2023-07-08T15:02:55;100210.22;;;32.72;73.78
36788;BME280;22738;45.560;9.434;2023-07-08T15:09:36;100205.19;;;32.53;89.84
36788;BME280;22738;45.560;9.434;2023-07-08T15:16:19;100205.75;;;32.89;80.34
36788;BME280;22738;45.560;9.434;2023-07-08T15:23:00;100193.28;;;32.95;70.79
36788;BME280;22738;45.560;9.434;2023-07-08T15:29:41;100192.25;;;32.96;71.46
36788;BME280;22738;45.560;9.434;2023-07-08T15:36:23;100193.03;;;32.85;77.23
36788;BME280;22738;45.560;9.434;2023-07-08T15:43:04;100178.31;;;32.76;76.88
36788;BME280;22738;45.560;9.434;2023-07-08T15:49:46;100167.34;;;32.89;66.33
36788;BME280;22738;45.560;9.434;2023-07-08T15:56:27;100162.69;;;32.96;69.15
36788;BME280;22738;45.560;9.434;2023-07-08T16:03:20;100159.19;;;32.84;68.40
36788;BME280;22738;45.560;9.434;2023-07-08T16:10:02;100158.09;;;32.85;71.59
36788;BME280;22738;45.560;9.434;2023-07-08T16:16:44;100139.91;;;32.75;71.21
36788;BME280;22738;45.560;9.434;2023-07-08T16:23:25;100141.91;;;33.03;63.70
36788;BME280;22738;45.560;9.434;2023-07-08T16:30:12;100138.72;;;32.71;69.59
36788;BME280;22738;45.560;9.434;2023-07-08T16:36:54;100140.25;;;32.56;72.82
36788;BME280;22738;45.560;9.434;2023-07-08T16:43:35;100129.06;;;32.59;75.42
36788;BME280;22738;45.560;9.434;2023-07-08T16:50:18;100129.72;;;32.42;75.80
36788;BME280;22738;45.560;9.434;2023-07-08T16:56:59;100111.66;;;32.50;77.09
36788;BME280;22738;45.560;9.434;2023-07-08T17:03:40;100113.03;;;32.40;73.84
36788;BME280;22738;45.560;9.434;2023-07-08T17:10:22;100110.91;;;32.31;78.37
36788;BME280;22738;45.560;9.434;2023-07-08T17:17:03;100094.91;;;32.24;73.17
36788;BME280;22738;45.560;9.434;2023-07-08T17:23:45;100092.38;;;32.29;73.68
36788;BME280;22738;45.560;9.434;2023-07-08T17:30:26;100095.00;;;32.06;79.61
36788;BME280;22738;45.560;9.434;2023-07-08T17:37:07;100095.38;;;31.98;82.78
36788;BME280;22738;45.560;9.434;2023-07-08T17:43:49;100102.19;;;31.94;84.38
36788;BME280;22738;45.560;9.434;2023-07-08T17:50:30;100104.63;;;31.84;86.68
36788;BME280;22738;45.560;9.434;2023-07-08T17:57:11;100105.72;;;31.65;87.46
36788;BME280;22738;45.560;9.434;2023-07-08T18:03:53;100104.88;;;31.53;94.46
36788;BME280;22738;45.560;9.434;2023-07-08T18:10:34;100102.78;;;31.37;98.50
36788;BME280;22738;45.560;9.434;2023-07-08T18:17:15;100105.56;;;31.12;100.00
36788;BME280;22738;45.560;9.434;2023-07-08T18:23:56;100112.00;;;30.86;100.00
36788;BME280;22738;45.560;9.434;2023-07-08T18:30:37;100115.97;;;30.59;100.00
36788;BME280;22738;45.560;9.434;2023-07-08T18:37:18;100122.31;;;30.40;100.00
36788;BME280;22738;45.560;9.434;2023-07-08T18:44:00;100117.09;;;30.20;100.00
36788;BME280;22738;45.560;9.434;2023-07-08T18:50:52;100121.97;;;29.99;100.00
36788;BME280;22738;45.560;9.434;2023-07-08T18:57:33;100129.06;;;29.87;100.00
36788;BME280;22738;45.560;9.434;2023-07-08T19:04:21;100135.50;;;29.73;100.00
36788;BME280;22738;45.560;9.434;2023-07-08T19:11:10;100130.09;;;29.48;100.00
36788;BME280;22738;45.560;9.434;2023-07-08T19:17:57;100133.28;;;29.06;100.00
36788;BME280;22738;45.560;9.434;2023-07-08T19:24:38;100140.94;;;28.82;100.00
36788;BME280;22738;45.560;9.434;2023-07-08T19:31:25;100145.69;;;28.61;100.00
36788;BME280;22738;45.560;9.434;2023-07-08T19:38:11;100150.97;;;28.21;100.00
36788;BME280;22738;45.560;9.434;2023-07-08T19:44:52;100156.19;;;27.76;100.00
36788;BME280;22738;45.560;9.434;2023-07-08T19:51:33;100164.28;;;27.48;100.00
36788;BME280;22738;45.560;9.434;2023-07-08T19:58:14;100168.88;;;27.33;100.00
36788;BME280;22738;45.560;9.434;2023-07-08T20:04:55;100175.78;;;27.14;100.00
36788;BME280;22738;45.560;9.434;2023-07-08T20:11:37;100180.41;;;27.06;100.00
36788;BME280;22738;45.560;9.434;2023-07-08T20:18:27;100182.38;;;26.91;100.00
36788;BME280;22738;45.560;9.434;2023-07-08T20:25:12;100201.41;;;26.66;100.00
36788;BME280;22738;45.560;9.434;2023-07-08T20:31:54;100201.25;;;26.53;100.00
36788;BME280;22738;45.560;9.434;2023-07-08T20:38:35;100210.66;;;26.49;100.00
36788;BME280;22738;45.560;9.434;2023-07-08T20:45:16;100208.38;;;26.25;100.00
36788;BME280;22738;45.560;9.434;2023-07-08T20:51:57;100226.50;;;26.00;100.00
36788;BME280;22738;45.560;9.434;2023-07-08T20:58:38;100229.63;;;25.89;100.00
36788;BME280;22738;45.560;9.434;2023-07-08T21:05:19;100235.75;;;25.90;100.00
36788;BME280;22738;45.560;9.434;2023-07-08T21:12:01;100250.81;;;25.83;100.00
36788;BME280;22738;45.560;9.434;2023-07-08T21:18:42;100256.31;;;25.67;100.00
36788;BME280;22738;45.560;9.434;2023-07-08T21:25:25;100268.34;;;25.25;100.00
36788;BME280;22738;45.560;9.434;2023-07-08T21:32:07;100262.53;;;25.44;100.00
36788;BME280;22738;45.560;9.434;2023-07-08T21:38:50;100258.97;;;25.52;100.00
36788;BME280;22738;45.560;9.434;2023-07-08T21:45:38;100263.63;;;25.65;100.00
36788;BME280;22738;45.560;9.434;2023-07-08T21:52:19;100260.88;;;25.73;100.00
36788;BME280;22738;45.560;9.434;2023-07-08T21:59:01;100258.59;;;25.70;100.00
36788;BME280;22738;45.560;9.434;2023-07-08T22:05:42;100264.72;;;25.56;100.00
36788;BME280;22738;45.560;9.434;2023-07-08T22:12:23;100264.63;;;25.49;100.00
36788;BME280;22738;45.560;9.434;2023-07-08T22:19:05;100266.53;;;25.40;100.00
36788;BME280;22738;45.560;9.434;2023-07-08T22:25:47;100270.91;;;25.33;100.00
36788;BME280;22738;45.560;9.434;2023-07-08T22:32:28;100277.69;;;25.21;100.00
36788;BME280;22738;45.560;9.434;2023-07-08T22:39:10;100285.06;;;25.11;100.00
36788;BME280;22738;45.560;9.434;2023-07-08T22:45:52;100287.16;;;25.01;100.00
36788;BME280;22738;45.560;9.434;2023-07-08T22:52:35;100275.03;;;24.84;100.00
36788;BME280;22738;45.560;9.434;2023-07-08T22:59:17;100280.44;;;24.68;100.00
36788;BME280;22738;45.560;9.434;2023-07-08T23:05:58;100291.75;;;24.62;100.00
36788;BME280;22738;45.560;9.434;2023-07-08T23:12:40;100286.34;;;24.55;100.00
36788;BME280;22738;45.560;9.434;2023-07-08T23:19:21;100279.84;;;24.58;100.00
36788;BME280;22738;45.560;9.434;2023-07-08T23:26:13;100287.25;;;24.62;100.00
36788;BME280;22738;45.560;9.434;2023-07-08T23:32:56;100295.47;;;24.53;100.00
36788;BME280;22738;45.560;9.434;2023-07-08T23:39:38;100288.50;;;24.52;100.00
36788;BME280;22738;45.560;9.434;2023-07-08T23:46:25;100306.09;;;24.45;100.00
36788;BME280;22738;45.560;9.434;2023-07-08T23:53:12;100300.09;;;24.28;100.00
36788;BME280;22738;45.560;9.434;2023-07-08T23:59:55;100300.91;;;24.29;100.00
